TimeIST,TemperatureF,Dew PointF,Humidity,Sea Level PressureIn,VisibilityMPH,Wind Direction,Wind SpeedMPH,Gust SpeedMPH,PrecipitationIn,Events,Conditions,WindDirDegrees,DateUTC
12:00 AM,55.4,53.6,94,30.21,6.2,NNW,12.7,-,N/A,,Scattered Clouds,340,2013-08-25 23:00:00
12:30 AM,55.4,53.6,94,30.21,6.2,NNW,11.5,-,N/A,,Scattered Clouds,340,2013-08-25 23:30:00
1:00 AM,55,54,94,30.21,16,NNW,11.2,,,,Scattered Clouds,340,2013-08-26 00:00:00
1:00 AM,55.4,53.6,94,30.18,6.2,NNW,11.5,-,N/A,,Partly Cloudy,340,2013-08-26 00:00:00
1:30 AM,55.4,53.6,94,30.18,6.2,NNW,12.7,-,N/A,,Partly Cloudy,340,2013-08-26 00:30:00
2:00 AM,55.4,53.6,94,30.18,6.2,NNW,10.4,-,N/A,,Partly Cloudy,330,2013-08-26 01:00:00
2:30 AM,53.6,53.6,100,30.18,6.2,NNW,10.4,-,N/A,,Partly Cloudy,330,2013-08-26 01:30:00
3:00 AM,53.6,53.6,100,30.18,6.2,NNW,10.4,-,N/A,,Scattered Clouds,330,2013-08-26 02:00:00
3:30 AM,53.6,53.6,100,30.18,6.2,NNW,11.5,-,N/A,,Mostly Cloudy,330,2013-08-26 02:30:00
4:00 AM,55.4,53.6,94,30.18,6.2,NNW,9.2,-,N/A,,Mostly Cloudy,330,2013-08-26 03:00:00
4:30 AM,55.4,53.6,94,30.18,6.2,NNW,10.4,-,N/A,,Mostly Cloudy,330,2013-08-26 03:30:00
5:00 AM,55.4,53.6,94,30.18,6.2,NNW,9.2,-,N/A,,Mostly Cloudy,330,2013-08-26 04:00:00
5:30 AM,55.4,55.4,100,30.18,6.2,NW,9.2,-,N/A,,Mostly Cloudy,320,2013-08-26 04:30:00
6:00 AM,55.4,55.4,100,30.18,6.2,NW,6.9,-,N/A,,Mostly Cloudy,310,2013-08-26 05:00:00
6:30 AM,55.4,55.4,100,30.18,6.2,NW,8.1,-,N/A,,Mostly Cloudy,310,2013-08-26 05:30:00
7:00 AM,55,55,99,30.20,22,NW,8.9,,,,Mostly Cloudy,320,2013-08-26 06:00:00
7:00 AM,55.4,55.4,100,30.18,6.2,NW,8.1,-,N/A,,Mostly Cloudy,320,2013-08-26 06:00:00
7:30 AM,55.4,55.4,100,30.18,6.2,NW,9.2,-,N/A,,Mostly Cloudy,310,2013-08-26 06:30:00
8:00 AM,55.4,55.4,100,30.18,6.2,NW,6.9,-,N/A,,Mostly Cloudy,310,2013-08-26 07:00:00
8:30 AM,57.2,55.4,94,30.18,6.2,NW,8.1,-,N/A,,Mostly Cloudy,310,2013-08-26 07:30:00
9:00 AM,57.2,55.4,94,30.18,6.2,NW,6.9,-,N/A,,Mostly Cloudy,310,2013-08-26 08:00:00
9:30 AM,57.2,55.4,94,30.18,6.2,NW,8.1,-,N/A,,Mostly Cloudy,320,2013-08-26 08:30:00
10:00 AM,59.0,55.4,88,30.18,6.2,NNW,8.1,-,N/A,,Mostly Cloudy,330,2013-08-26 09:00:00
10:30 AM,59.0,55.4,88,30.18,6.2,NNW,8.1,-,N/A,,Mostly Cloudy,330,2013-08-26 09:30:00
11:00 AM,60.8,55.4,82,30.18,6.2,NNW,8.1,-,N/A,,Mostly Cloudy,330,2013-08-26 10:00:00
11:30 AM,62.6,53.6,72,30.18,6.2,NNW,8.1,-,N/A,,Mostly Cloudy,330,2013-08-26 10:30:00
12:00 PM,62.6,51.8,68,30.18,6.2,NW,5.8,-,N/A,,Mostly Cloudy,320,2013-08-26 11:00:00
12:30 PM,62.6,51.8,68,30.18,6.2,WNW,5.8,-,N/A,,Mostly Cloudy,300,2013-08-26 11:30:00
1:00 PM,63,53,60,30.19,28,NW,6.7,,,,Mostly Cloudy,310,2013-08-26 12:00:00
1:00 PM,62.6,51.8,68,30.18,6.2,NW,6.9,-,N/A,,Mostly Cloudy,310,2013-08-26 12:00:00
1:30 PM,62.6,51.8,68,30.18,6.2,NNW,8.1,-,N/A,,Mostly Cloudy,340,2013-08-26 12:30:00
2:00 PM,60.8,51.8,72,30.18,6.2,NNW,10.4,-,N/A,,Mostly Cloudy,340,2013-08-26 13:00:00
2:30 PM,60.8,53.6,77,30.18,6.2,North,8.1,-,N/A,,Mostly Cloudy,350,2013-08-26 13:30:00
3:00 PM,60.8,51.8,72,30.18,6.2,NNW,9.2,-,N/A,,Mostly Cloudy,340,2013-08-26 14:00:00
3:30 PM,60.8,53.6,77,30.18,6.2,North,6.9,-,N/A,,Mostly Cloudy,360,2013-08-26 14:30:00
4:00 PM,60.8,53.6,77,30.18,6.2,NNW,8.1,-,N/A,,Mostly Cloudy,340,2013-08-26 15:00:00
4:30 PM,60.8,53.6,77,30.15,6.2,NNW,8.1,-,N/A,,Mostly Cloudy,340,2013-08-26 15:30:00
5:00 PM,60.8,53.6,77,30.15,6.2,NW,8.1,-,N/A,,Mostly Cloudy,310,2013-08-26 16:00:00
5:30 PM,60.8,53.6,77,30.15,6.2,North,8.1,-,N/A,,Mostly Cloudy,350,2013-08-26 16:30:00
6:00 PM,60.8,53.6,77,30.15,6.2,NNW,8.1,-,N/A,,Mostly Cloudy,330,2013-08-26 17:00:00
6:30 PM,60.8,53.6,77,30.15,6.2,NNW,10.4,-,N/A,,Mostly Cloudy,340,2013-08-26 17:30:00
7:00 PM,61,54,71,30.17,16,NNW,8.9,,,,Mostly Cloudy,340,2013-08-26 18:00:00
7:00 PM,60.8,53.6,77,30.15,6.2,NNW,9.2,-,N/A,,Mostly Cloudy,340,2013-08-26 18:00:00
7:30 PM,60.8,53.6,77,30.15,6.2,NNW,6.9,-,N/A,,Mostly Cloudy,330,2013-08-26 18:30:00
8:00 PM,60.8,55.4,82,30.15,6.2,North,5.8,-,N/A,,Mostly Cloudy,350,2013-08-26 19:00:00
8:30 PM,60.8,55.4,82,30.15,6.2,NNE,6.9,-,N/A,,Mostly Cloudy,30,2013-08-26 19:30:00
9:00 PM,60.8,55.4,82,30.15,6.2,North,5.8,-,N/A,,Mostly Cloudy,350,2013-08-26 20:00:00
9:30 PM,59.0,55.4,88,30.15,6.2,NNW,4.6,-,N/A,,Mostly Cloudy,340,2013-08-26 20:30:00
10:00 PM,59.0,55.4,88,30.18,6.2,NW,5.8,-,N/A,,Mostly Cloudy,320,2013-08-26 21:00:00
10:30 PM,59.0,55.4,88,30.15,6.2,NW,8.1,-,N/A,,Mostly Cloudy,310,2013-08-26 21:30:00
11:00 PM,59.0,55.4,88,30.15,6.2,WNW,6.9,-,N/A,,Mostly Cloudy,300,2013-08-26 22:00:00
11:30 PM,57.2,57.2,100,30.15,6.2,WNW,4.6,-,N/A,,Mostly Cloudy,290,2013-08-26 22:30:00